Airfield :
LOGIN :

Register | Disclaimer

   EN    FR    IT 

 










Legend :    VFR   Marginal VFR   IFR   Intensive IFR   Very Intensive IFR
Visi :
Ceiling :
>= 8 km
>= 3000ft
5 to 8 km
1000 to 3000 ft
1500m to 5 km
500 to 1000 ft
800 to 1500m
200 to 500 ft
< 800m
< 200 ft
Symbols :   Thunderstorms  Fog  Heavy snow  Heavy precipitations  Wind > 20 kt
SIGMETs :     Misc.  Thunderstorms  Icing  Turbulence  Mountain Waves  Volcanic Ashes






- Airport Elevation : 48 ft
- IATA code : PSR


LIBP - Abruzzo Pescara

CURRENT METAR :
  • 231850Z AUTO 08003KT 9999 OVC130/// 26/18 Q1013

EXPIRED METARs :
  • 231820Z AUTO 05005KT 9999 FEW100/// BKN130/// 26/18 Q1013
  • 231750Z AUTO 07005KT 9999 FEW100/// 28/17 Q1013
  • 231720Z AUTO 07005KT 040V100 9999 SCT099/// 28/15 Q1013
  • 231650Z AUTO 06005KT 030V090 9999 NCD 29/15 Q1013
  • 231620Z AUTO 07006KT 040V110 9999 NCD 29/14 Q1013

TAF TAF LIBP
Valid from the 23 at 18:00 until the 24 at 18:00 UTC


231700Z 2318/2418 VRB04KT 9999 FEW050
BECMG 2409/2411 09010KT



MET'MAP, your aeronautical weather chart ! - Copyright ORBIFLY December 2007 - Disclaimer

ORBIFLY MET'MAP TEAM :

Programming & Development : Alexandra Zaïnal
Concept & original design : Baudouin d'Aumeries
Assistance for programming : Marc-Olivier Méhu
Technical & hardware support : Manuel Goepfert

Contact : metmap@orbifly.com




SOURCES & CREDITS :

   NOAA